createdAt,value
2023-03-21T00:00:44.799Z,18.00
2023-03-21T00:03:11.850Z,21.00
2023-03-21T00:05:43.606Z,16.00
2023-03-21T00:08:10.614Z,17.00
2023-03-21T00:10:42.754Z,16.00
2023-03-21T00:13:12.345Z,15.00
2023-03-21T00:15:48.401Z,14.50
2023-03-21T00:18:22.127Z,16.75
2023-03-21T00:21:35.617Z,19.75
2023-03-21T00:23:50.838Z,16.25
2023-03-21T00:26:17.639Z,16.00
2023-03-21T00:28:44.544Z,16.00
2023-03-21T00:31:12.934Z,14.00
2023-03-21T00:33:39.859Z,14.50
2023-03-21T00:36:09.255Z,17.00
2023-03-21T00:38:37.333Z,15.00
2023-03-21T00:41:20.926Z,13.50
2023-03-21T00:43:51.301Z,14.50
2023-03-21T00:46:18.280Z,18.00
2023-03-21T00:48:45.189Z,14.00
2023-03-21T00:51:15.433Z,15.75
2023-03-21T00:53:43.072Z,14.00
2023-03-21T00:56:09.980Z,14.00
2023-03-21T00:58:36.949Z,14.50
2023-03-21T01:01:04.694Z,17.25
2023-03-21T01:03:33.350Z,15.00
2023-03-21T01:06:00.300Z,13.00
2023-03-21T01:08:33.225Z,13.00
2023-03-21T01:11:08.868Z,13.00
2023-03-21T01:13:38.429Z,13.00
2023-03-21T01:16:09.634Z,12.00
2023-03-21T01:18:38.390Z,13.50
2023-03-21T01:21:09.976Z,13.00
2023-03-21T01:23:37.731Z,12.00
2023-03-21T01:26:04.898Z,12.00
2023-03-21T01:28:32.160Z,15.00
2023-03-21T01:31:02.120Z,14.00
2023-03-21T01:33:30.664Z,12.00
2023-03-21T01:36:10.220Z,12.00
2023-03-21T01:38:41.102Z,10.00
2023-03-21T01:41:19.922Z,10.00
2023-03-21T01:43:48.678Z,10.00
2023-03-21T01:49:34.235Z,16.00
2023-03-21T01:52:36.466Z,13.50
2023-03-21T01:55:10.153Z,13.75
2023-03-21T01:58:02.343Z,13.00
2023-03-21T02:00:34.032Z,13.00
2023-03-21T02:03:29.542Z,13.00
2023-03-21T02:06:15.641Z,16.75
2023-03-21T02:08:46.587Z,17.00
2023-03-21T02:11:16.593Z,13.25
2023-03-21T02:13:44.056Z,15.00
2023-03-21T02:16:28.550Z,15.00
2023-03-21T02:19:00.309Z,14.00
2023-03-21T02:21:49.306Z,12.00
2023-03-21T02:25:08.443Z,12.00
2023-03-21T02:28:04.898Z,11.00
2023-03-21T02:30:50.913Z,9.00
2023-03-21T02:33:34.407Z,14.00
2023-03-21T02:36:14.446Z,12.00
2023-03-21T02:38:55.129Z,15.50
2023-03-21T02:41:29.848Z,13.50
2023-03-21T02:44:14.409Z,13.00
2023-03-21T02:47:03.194Z,12.00
2023-03-21T02:49:42.379Z,11.00
2023-03-21T02:52:22.875Z,11.00
2023-03-21T02:54:58.678Z,10.00
2023-03-21T02:57:42.094Z,11.25
2023-03-21T03:00:17.681Z,11.75
2023-03-21T03:02:48.850Z,15.00
2023-03-21T03:05:27.657Z,15.25
2023-03-21T03:08:59.562Z,16.00
2023-03-21T03:11:30.126Z,14.00
2023-03-21T03:14:35.874Z,12.00
2023-03-21T03:17:12.721Z,15.00
2023-03-21T03:20:16.211Z,14.00
2023-03-21T03:23:07.661Z,12.50
2023-03-21T03:25:53.451Z,12.00
2023-03-21T03:28:26.406Z,14.00
2023-03-21T03:31:08.001Z,15.00
2023-03-21T03:33:46.342Z,12.00
2023-03-21T03:36:33.236Z,10.00
2023-03-21T03:39:15.921Z,8.00
2023-03-21T03:42:09.991Z,6.00
2023-03-21T03:44:45.621Z,12.75
2023-03-21T03:47:57.218Z,14.00
2023-03-21T03:51:01.816Z,9.75
2023-03-21T03:53:47.878Z,8.25
2023-03-21T03:56:15.268Z,10.00
2023-03-21T03:58:45.731Z,10.00
2023-03-21T04:01:16.006Z,12.00
2023-03-21T04:03:51.055Z,10.00
2023-03-21T04:06:21.742Z,13.00
2023-03-21T04:08:50.643Z,10.00
2023-03-21T04:11:17.671Z,11.00
2023-03-21T04:13:49.055Z,15.50
2023-03-21T04:16:21.753Z,16.50
2023-03-21T04:18:48.960Z,14.00
2023-03-21T04:21:18.827Z,11.00
2023-03-21T04:23:45.951Z,6.00
2023-03-21T04:26:12.891Z,9.00
2023-03-21T04:28:48.860Z,12.00
2023-03-21T04:31:34.786Z,10.75
2023-03-21T04:34:10.112Z,11.50
2023-03-21T04:36:39.923Z,11.00
2023-03-21T04:39:09.195Z,8.00
2023-03-21T04:41:36.085Z,12.75
2023-03-21T04:44:04.596Z,14.00
2023-03-21T04:46:31.533Z,14.00
2023-03-21T04:48:58.404Z,14.00
2023-03-21T04:51:25.451Z,10.75
2023-03-21T04:53:57.561Z,6.50
2023-03-21T04:56:29.297Z,8.50
2023-03-21T04:58:56.848Z,7.25
2023-03-21T05:01:23.843Z,12.00
2023-03-21T05:03:50.928Z,9.00
2023-03-21T05:06:20.353Z,6.25
2023-03-21T05:09:00.315Z,11.00
2023-03-21T05:11:41.301Z,13.00
2023-03-21T05:14:14.271Z,14.00
2023-03-21T05:16:44.244Z,14.00
2023-03-21T05:19:11.899Z,15.00
2023-03-21T05:21:41.687Z,14.00
2023-03-21T05:24:22.762Z,11.00
2023-03-21T05:26:55.662Z,15.25
2023-03-21T05:29:26.955Z,9.50
2023-03-21T05:32:05.926Z,5.50
2023-03-21T05:34:44.691Z,4.00
2023-03-21T05:37:22.310Z,6.00
2023-03-21T05:39:51.929Z,12.50
2023-03-21T05:42:39.424Z,8.50
2023-03-21T05:45:17.267Z,7.25
2023-03-21T05:47:44.303Z,12.75
2023-03-21T05:50:16.084Z,7.25
2023-03-21T05:52:56.004Z,12.75
2023-03-21T05:55:23.448Z,15.50
2023-03-21T05:57:50.423Z,10.25
2023-03-21T06:00:22.796Z,9.75
2023-03-21T06:03:05.273Z,7.25
2023-03-21T06:05:47.480Z,13.75
2023-03-21T06:08:21.582Z,12.00
2023-03-21T06:10:48.753Z,12.00
2023-03-21T06:13:15.665Z,10.50
2023-03-21T06:15:42.827Z,15.50
2023-03-21T06:18:15.528Z,17.00
2023-03-21T06:20:53.143Z,14.00
2023-03-21T06:23:20.104Z,12.00
2023-03-21T06:25:48.733Z,8.00
2023-03-21T06:28:15.753Z,6.00
2023-03-21T06:30:42.733Z,8.00
2023-03-21T06:33:21.976Z,14.25
2023-03-21T06:35:56.948Z,16.00
2023-03-21T06:38:25.677Z,14.50
2023-03-21T06:40:53.458Z,12.50
2023-03-21T06:43:23.131Z,11.00
2023-03-21T06:45:50.664Z,8.00
2023-03-21T06:48:20.744Z,13.75
2023-03-21T06:50:50.266Z,15.00
2023-03-21T06:53:19.604Z,16.00
2023-03-21T06:56:05.572Z,15.00
2023-03-21T06:58:34.059Z,13.00
2023-03-21T07:01:02.626Z,14.25
2023-03-21T07:03:35.611Z,14.00
2023-03-21T07:06:07.894Z,17.25
2023-03-21T07:08:34.829Z,16.00
2023-03-21T07:11:02.358Z,14.00
2023-03-21T07:13:29.315Z,16.25
2023-03-21T07:16:06.415Z,13.25
2023-03-21T07:18:36.873Z,16.75
2023-03-21T07:21:04.324Z,16.00
2023-03-21T07:23:31.294Z,13.25
2023-03-21T07:25:58.299Z,13.75
2023-03-21T07:28:25.681Z,12.00
2023-03-21T07:31:04.440Z,12.00
2023-03-21T07:33:34.592Z,10.00
2023-03-21T07:36:02.670Z,14.75
2023-03-21T07:38:30.246Z,19.00
2023-03-21T07:40:59.985Z,15.25
2023-03-21T07:43:30.305Z,15.00
2023-03-21T07:45:59.562Z,13.00
2023-03-21T07:48:29.855Z,11.00
2023-03-21T07:50:59.900Z,16.25
2023-03-21T07:53:27.780Z,13.00
2023-03-21T07:55:56.093Z,15.75
2023-03-21T07:58:28.760Z,18.00
2023-03-21T08:00:58.634Z,13.00
2023-03-21T08:03:29.605Z,15.75
2023-03-21T08:05:56.751Z,16.00
2023-03-21T08:08:25.535Z,12.00
2023-03-21T08:10:55.714Z,15.75
2023-03-21T08:13:22.760Z,18.00
2023-03-21T08:15:49.844Z,19.00
2023-03-21T08:18:17.075Z,18.00
2023-03-21T08:20:43.991Z,15.25
2023-03-21T08:23:10.801Z,17.75
2023-03-21T08:25:37.834Z,19.00
2023-03-21T08:28:05.131Z,18.00
2023-03-21T08:30:32.187Z,18.00
2023-03-21T08:33:01.681Z,15.00
2023-03-21T08:35:29.875Z,15.00
2023-03-21T08:37:56.808Z,15.00
2023-03-21T08:40:23.614Z,12.00
2023-03-21T08:42:50.561Z,15.75
2023-03-21T08:45:17.889Z,16.00
2023-03-21T08:47:44.989Z,13.00
2023-03-21T08:50:22.590Z,13.00
2023-03-21T08:52:52.026Z,15.00
2023-03-21T08:55:22.865Z,17.00
2023-03-21T08:57:51.847Z,15.00
2023-03-21T09:00:22.645Z,15.00
2023-03-21T09:02:51.634Z,15.00
2023-03-21T09:05:18.793Z,15.00
2023-03-21T09:07:46.281Z,16.50
2023-03-21T09:10:22.768Z,19.00
2023-03-21T09:12:53.414Z,19.00
2023-03-21T09:15:22.186Z,19.00
2023-03-21T09:17:49.823Z,16.25
2023-03-21T09:20:21.509Z,18.00
2023-03-21T09:22:50.599Z,20.00
2023-03-21T09:25:18.549Z,19.00
2023-03-21T09:27:50.751Z,21.00
2023-03-21T09:30:26.007Z,17.50
2023-03-21T09:32:55.494Z,16.00
2023-03-21T09:35:22.593Z,19.00
2023-03-21T09:37:49.639Z,19.00
2023-03-21T09:40:53.799Z,19.75
2023-03-21T09:43:45.538Z,19.00
2023-03-21T09:46:24.698Z,19.00
2023-03-21T09:48:59.890Z,17.00
2023-03-21T09:51:33.488Z,15.00
2023-03-21T09:54:07.060Z,15.00
2023-03-21T09:56:39.068Z,15.00
2023-03-21T09:59:10.174Z,15.50
2023-03-21T10:01:38.759Z,16.00
2023-03-21T10:04:09.112Z,17.00
2023-03-21T10:06:40.812Z,19.50
2023-03-21T10:09:12.145Z,18.00
2023-03-21T10:11:44.848Z,15.50
2023-03-21T10:14:27.049Z,13.50
2023-03-21T10:17:17.849Z,13.50
2023-03-21T10:19:46.864Z,19.00
2023-03-21T10:22:13.762Z,17.50
2023-03-21T10:24:41.241Z,14.00
2023-03-21T10:27:10.182Z,15.00
2023-03-21T10:29:45.884Z,17.75
2023-03-21T10:32:17.506Z,18.75
2023-03-21T10:34:58.909Z,20.00
2023-03-21T10:37:26.884Z,16.00
2023-03-21T10:39:55.732Z,18.00
2023-03-21T10:42:26.418Z,18.00
2023-03-21T10:44:58.679Z,20.00
2023-03-21T10:47:32.471Z,19.00
2023-03-21T10:50:13.679Z,20.75
2023-03-21T10:52:57.353Z,20.00
2023-03-21T10:55:29.310Z,16.25
2023-03-21T10:58:07.193Z,15.00
2023-03-21T11:00:42.622Z,16.25
2023-03-21T11:03:40.290Z,20.50
2023-03-21T11:06:17.047Z,16.50
2023-03-21T11:08:49.102Z,15.50
2023-03-21T11:11:39.580Z,15.00
2023-03-21T11:14:24.061Z,15.50
2023-03-21T11:16:51.056Z,18.25
2023-03-21T11:19:20.698Z,19.00
2023-03-21T11:21:47.743Z,17.00
2023-03-21T11:24:18.405Z,15.00
2023-03-21T11:26:49.116Z,15.00
2023-03-21T11:29:30.389Z,18.00
2023-03-21T11:32:23.477Z,15.75
2023-03-21T11:34:57.111Z,14.00
2023-03-21T11:37:24.015Z,18.75
2023-03-21T11:39:57.213Z,15.00
2023-03-21T11:42:31.183Z,14.75
2023-03-21T11:45:10.418Z,15.00
2023-03-21T11:47:37.978Z,18.00
2023-03-21T11:50:27.743Z,15.00
2023-03-21T11:53:03.934Z,14.00
2023-03-21T11:56:15.252Z,15.00
2023-03-21T11:58:47.380Z,15.00
2023-03-21T12:01:45.945Z,17.25
2023-03-21T12:04:45.269Z,17.50
2023-03-21T12:07:42.415Z,18.00
2023-03-21T12:10:51.363Z,18.25
2023-03-21T12:13:48.126Z,19.00
2023-03-21T12:16:42.621Z,17.75
2023-03-21T12:19:22.451Z,18.00
2023-03-21T12:21:49.422Z,16.00
2023-03-21T12:24:23.505Z,13.50
2023-03-21T12:27:35.758Z,13.00
2023-03-21T12:30:02.630Z,16.50
2023-03-21T12:32:35.700Z,16.00
2023-03-21T12:35:20.216Z,17.50
2023-03-21T12:37:52.034Z,15.00
2023-03-21T12:40:26.226Z,19.50
2023-03-21T12:43:22.383Z,17.00
2023-03-21T12:45:57.666Z,16.00
2023-03-21T12:48:55.607Z,18.50
2023-03-21T12:51:43.593Z,15.00
2023-03-21T12:54:28.421Z,19.00
2023-03-21T12:57:21.385Z,19.00
2023-03-21T13:00:26.501Z,15.00
2023-03-21T13:02:59.796Z,16.25
2023-03-21T13:05:29.409Z,18.00
2023-03-21T13:08:04.959Z,15.50
2023-03-21T13:10:34.088Z,15.50
2023-03-21T13:13:19.499Z,13.00
2023-03-21T13:16:16.473Z,17.75
2023-03-21T13:18:59.173Z,16.00
2023-03-21T13:21:35.142Z,15.00
2023-03-21T13:24:05.524Z,15.00
2023-03-21T13:26:43.534Z,14.00
2023-03-21T13:29:33.227Z,17.00
2023-03-21T13:32:12.131Z,14.00
2023-03-21T13:34:39.850Z,15.50
2023-03-21T13:37:15.980Z,16.00
2023-03-21T13:39:46.081Z,18.00
2023-03-21T13:42:29.385Z,15.00
2023-03-21T13:45:00.391Z,14.00
2023-03-21T13:47:54.652Z,17.00
2023-03-21T13:50:23.503Z,17.25
2023-03-21T13:53:13.781Z,15.00
2023-03-21T13:55:45.641Z,15.00
2023-03-21T13:58:35.566Z,19.00
2023-03-21T14:01:16.740Z,15.00
2023-03-21T14:03:45.733Z,15.25
2023-03-21T14:06:15.918Z,19.25
2023-03-21T14:08:46.299Z,18.00
2023-03-21T14:11:22.500Z,15.00
2023-03-21T14:13:55.544Z,13.00
2023-03-21T14:16:26.676Z,14.75
2023-03-21T14:18:59.568Z,13.25
2023-03-21T14:21:32.541Z,13.00
2023-03-21T14:24:09.295Z,16.00
2023-03-21T14:26:43.452Z,18.50
2023-03-21T14:29:26.248Z,14.00
2023-03-21T14:31:57.863Z,15.00
2023-03-21T14:34:28.867Z,17.00
2023-03-21T14:36:59.205Z,13.00
2023-03-21T14:39:31.713Z,16.00
2023-03-21T14:42:05.529Z,13.75
2023-03-21T14:44:54.418Z,15.00
2023-03-21T14:47:33.092Z,16.50
2023-03-21T14:50:00.412Z,15.50
2023-03-21T14:52:32.743Z,12.25
2023-03-21T14:55:01.818Z,11.50
2023-03-21T14:57:32.339Z,15.00
2023-03-21T15:00:02.712Z,14.00
2023-03-21T15:02:40.247Z,14.00
2023-03-21T15:05:16.544Z,15.00
2023-03-21T15:07:47.042Z,15.00
2023-03-21T15:10:16.658Z,11.00
2023-03-21T15:12:58.822Z,13.75
2023-03-21T15:15:35.433Z,13.00
2023-03-21T15:18:13.873Z,14.25
2023-03-21T15:20:41.304Z,12.50
2023-03-21T15:23:28.854Z,11.00
2023-03-21T15:25:58.747Z,10.00
2023-03-21T15:28:26.414Z,15.00
2023-03-21T15:30:54.074Z,14.50
2023-03-21T15:33:25.095Z,13.00
2023-03-21T15:35:55.291Z,11.00
2023-03-21T15:38:33.421Z,11.00
2023-03-21T15:41:21.219Z,13.00
2023-03-21T15:44:13.329Z,12.25
2023-03-21T15:47:00.529Z,15.00
2023-03-21T15:49:33.760Z,10.25
2023-03-21T15:52:15.787Z,7.00
2023-03-21T15:54:52.732Z,14.50
2023-03-21T15:57:46.145Z,15.00
2023-03-21T16:01:08.819Z,13.00
2023-03-21T16:03:54.967Z,17.00
2023-03-21T16:06:32.553Z,13.50
2023-03-21T16:09:20.639Z,15.00
2023-03-21T16:11:58.933Z,16.25
2023-03-21T16:14:35.008Z,16.00
2023-03-21T16:17:13.562Z,17.50
2023-03-21T16:19:41.008Z,12.00
2023-03-21T16:22:11.155Z,6.25
2023-03-21T16:24:38.288Z,7.00
2023-03-21T16:27:14.387Z,4.00
2023-03-21T16:29:41.513Z,5.50
2023-03-21T16:32:18.937Z,7.00
2023-03-21T16:34:50.037Z,8.75
2023-03-21T16:37:17.010Z,14.00
2023-03-21T16:39:43.894Z,8.50
2023-03-21T16:42:12.731Z,6.25
2023-03-21T16:44:40.087Z,5.00
2023-03-21T16:47:19.719Z,4.00
2023-03-21T16:49:47.107Z,8.00
2023-03-21T16:52:14.980Z,10.00
2023-03-21T16:54:42.938Z,12.50
2023-03-21T16:57:24.558Z,12.00
2023-03-21T16:59:51.538Z,14.25
2023-03-21T17:02:18.400Z,14.00
2023-03-21T17:04:45.359Z,12.00
2023-03-21T17:07:16.088Z,14.00
2023-03-21T17:09:43.517Z,10.50
2023-03-21T17:12:14.888Z,6.00
2023-03-21T17:14:43.099Z,10.00
2023-03-21T17:17:15.219Z,6.00
2023-03-21T17:19:42.480Z,11.75
2023-03-21T17:22:10.887Z,6.25
2023-03-21T17:24:39.127Z,4.00
2023-03-21T17:27:11.733Z,9.00
2023-03-21T17:29:41.327Z,7.75
2023-03-21T17:32:08.368Z,4.00
2023-03-21T17:34:35.435Z,4.00
2023-03-21T17:37:03.143Z,3.75
2023-03-21T17:39:30.341Z,9.50
2023-03-21T17:42:00.191Z,6.00
2023-03-21T17:44:28.790Z,5.00
2023-03-21T17:46:55.830Z,9.75
2023-03-21T17:49:23.054Z,11.50
2023-03-21T17:51:49.981Z,12.00
2023-03-21T17:54:16.890Z,13.00
2023-03-21T17:56:44.325Z,13.00
2023-03-21T17:59:13.932Z,13.00
2023-03-21T18:01:41.148Z,6.50
2023-03-21T18:04:08.217Z,5.00
2023-03-21T18:06:35.461Z,8.00
2023-03-21T18:09:03.998Z,12.50
2023-03-21T18:11:30.850Z,14.00
2023-03-21T18:14:13.831Z,9.75
2023-03-21T18:16:42.794Z,13.00
2023-03-21T18:19:11.400Z,10.00
2023-03-21T18:21:38.773Z,6.00
2023-03-21T18:24:05.878Z,6.00
2023-03-21T18:26:32.924Z,4.00
2023-03-21T18:31:57.682Z,6.75
2023-03-21T18:34:31.673Z,9.00
2023-03-21T18:36:58.642Z,6.00
2023-03-21T18:39:25.957Z,13.25
2023-03-21T18:41:57.063Z,11.25
2023-03-21T18:44:25.054Z,9.00
2023-03-21T18:46:52.301Z,6.00
2023-03-21T18:52:07.216Z,8.00
2023-03-21T18:54:34.375Z,9.00
2023-03-21T18:59:51.671Z,8.75
2023-03-21T19:02:18.908Z,14.25
2023-03-21T19:04:46.679Z,16.75
2023-03-21T19:07:13.849Z,16.00
2023-03-21T19:10:05.304Z,13.00
2023-03-21T19:12:28.497Z,11.00
2023-03-21T19:14:55.630Z,13.00
2023-03-21T19:18:26.126Z,13.00
2023-03-21T19:20:11.947Z,12.00
2023-03-21T19:22:38.936Z,12.50
2023-03-21T19:25:07.246Z,12.25
2023-03-21T19:27:35.311Z,12.00
2023-03-21T19:30:13.864Z,11.00
2023-03-21T19:32:41.637Z,13.00
2023-03-21T19:35:08.740Z,11.00
2023-03-21T19:37:35.691Z,10.00
2023-03-21T19:40:04.579Z,12.50
2023-03-21T19:42:31.900Z,11.25
2023-03-21T19:44:58.741Z,8.00
2023-03-21T19:47:25.785Z,13.25
2023-03-21T19:52:41.136Z,14.25
2023-03-21T19:55:08.602Z,12.00
2023-03-21T19:57:35.763Z,10.50
2023-03-21T20:00:03.389Z,12.00
2023-03-21T20:02:36.763Z,9.50
2023-03-21T20:05:06.562Z,10.50
2023-03-21T20:07:33.476Z,11.50
2023-03-21T20:10:00.803Z,13.25
2023-03-21T20:12:28.110Z,13.00
2023-03-21T20:15:06.983Z,12.00
2023-03-21T20:17:39.054Z,11.75
2023-03-21T20:20:07.030Z,12.00
2023-03-21T20:23:03.291Z,10.00
2023-03-21T20:25:22.316Z,12.00
2023-03-21T20:28:09.376Z,13.00
2023-03-21T20:30:36.721Z,12.25
2023-03-21T20:33:04.058Z,14.00
2023-03-21T20:36:13.863Z,10.50
2023-03-21T20:38:18.315Z,13.25
2023-03-21T20:40:48.527Z,15.00
2023-03-21T20:44:04.959Z,15.00
2023-03-21T20:46:10.620Z,13.00
2023-03-21T20:48:38.753Z,14.50
2023-03-21T20:52:09.963Z,12.50
2023-03-21T20:53:58.212Z,10.50
2023-03-21T20:56:25.097Z,10.50
2023-03-21T20:59:04.971Z,7.25
2023-03-21T21:01:39.264Z,12.50
2023-03-21T21:04:06.277Z,13.00
2023-03-21T21:06:36.290Z,8.00
2023-03-21T21:09:03.226Z,7.00
2023-03-21T21:14:17.408Z,14.00
2023-03-21T21:16:44.888Z,11.00
2023-03-21T21:19:11.917Z,8.00
2023-03-21T21:21:41.022Z,6.75
2023-03-21T21:24:14.572Z,12.00
2023-03-21T21:26:42.030Z,11.75
2023-03-21T21:29:09.045Z,10.50
2023-03-21T21:31:36.008Z,11.25
2023-03-21T21:34:02.904Z,13.00
2023-03-21T21:36:29.854Z,10.00
2023-03-21T21:38:56.651Z,8.00
2023-03-21T21:41:24.096Z,13.00
2023-03-21T21:43:51.093Z,10.00
2023-03-21T21:46:18.273Z,13.50
2023-03-21T21:48:45.178Z,10.25
2023-03-21T21:51:15.265Z,6.25
2023-03-21T21:53:42.111Z,6.75
2023-03-21T21:56:09.558Z,6.25
2023-03-21T21:58:36.435Z,13.00
2023-03-21T22:01:03.372Z,15.00
2023-03-21T22:03:30.318Z,15.75
2023-03-21T22:06:02.425Z,11.00
2023-03-21T22:08:29.449Z,14.00
2023-03-21T22:10:56.480Z,13.00
2023-03-21T22:13:23.532Z,13.00
2023-03-21T22:15:50.644Z,12.00
2023-03-21T22:18:17.727Z,10.00
2023-03-21T22:20:45.544Z,9.75
2023-03-21T22:23:12.659Z,12.00
2023-03-21T22:25:40.451Z,11.00
2023-03-21T22:28:07.762Z,11.00
2023-03-21T22:30:34.692Z,13.00
2023-03-21T22:33:09.195Z,11.00
2023-03-21T22:35:37.116Z,7.00
2023-03-21T22:38:04.079Z,6.00
2023-03-21T22:40:31.091Z,6.00
2023-03-21T22:42:58.045Z,5.00
2023-03-21T22:45:25.118Z,5.00
2023-03-21T22:47:52.134Z,5.25
2023-03-21T22:50:19.333Z,7.00
2023-03-21T22:52:46.270Z,10.50
2023-03-21T22:55:13.188Z,11.25
2023-03-21T22:57:40.120Z,8.50
2023-03-21T23:00:08.335Z,12.00
2023-03-21T23:02:35.176Z,9.50
2023-03-21T23:05:02.216Z,12.50
2023-03-21T23:07:29.104Z,12.00
2023-03-21T23:09:56.752Z,13.00
2023-03-21T23:12:23.754Z,11.00
2023-03-21T23:14:50.828Z,9.50
2023-03-21T23:17:17.703Z,6.00
2023-03-21T23:19:44.860Z,10.75
2023-03-21T23:22:11.764Z,14.25
2023-03-21T23:24:38.707Z,15.75
2023-03-21T23:27:05.798Z,11.25
2023-03-21T23:29:32.766Z,14.75
2023-03-21T23:31:59.654Z,13.00
2023-03-21T23:34:27.233Z,11.00
2023-03-21T23:36:54.154Z,11.50
2023-03-21T23:39:21.044Z,12.00
2023-03-21T23:41:47.943Z,9.00
2023-03-21T23:44:14.858Z,6.75
2023-03-21T23:46:41.755Z,8.00
2023-03-21T23:49:09.942Z,11.25
2023-03-21T23:51:37.148Z,13.75
2023-03-21T23:54:04.072Z,10.00
2023-03-21T23:56:30.972Z,8.00
2023-03-21T23:58:58.305Z,10.50
